Terminal Aerodrome Forecast
Issued by NWS

Home | Current Version | Previous Version | Text Only | Print | Product List | Glossary On
Versions: 1 2 3 4 5 6 7 8 9 10 11 12
121
FTUS43 KMQT 221125
TAFCMX
TAF
KCMX 221125Z 2212/2312 27015G23KT P6SM VCSH SCT015 OVC025
      TEMPO 2212/2214 SCT006 BKN015
     FM221500 27015G24KT P6SM VCSH OVC060
     FM222100 26012G22KT P6SM BKN150
     FM230000 24008KT P6SM FEW250
     FM230900 19006KT P6SM BKN140=

USA.gov is the U.S. government's official web portal to all federal, state and local government web resources and services.